sensor_id;sensor_type;location;lat;lon;timestamp;P1;durP1;ratioP1;P2;durP2;ratioP2
54977;SDS011;40873;47.522;19.106;2022-12-07T00:01:05;21.35;;;10.85;;
54977;SDS011;40873;47.522;19.106;2022-12-07T00:03:43;23.58;;;10.63;;
54977;SDS011;40873;47.522;19.106;2022-12-07T00:06:12;20.75;;;9.60;;
54977;SDS011;40873;47.522;19.106;2022-12-07T00:08:41;17.80;;;9.73;;
54977;SDS011;40873;47.522;19.106;2022-12-07T00:11:10;24.10;;;11.52;;
54977;SDS011;40873;47.522;19.106;2022-12-07T00:13:39;21.80;;;10.93;;
54977;SDS011;40873;47.522;19.106;2022-12-07T00:16:08;22.00;;;10.65;;
54977;SDS011;40873;47.522;19.106;2022-12-07T00:18:38;18.23;;;9.75;;
54977;SDS011;40873;47.522;19.106;2022-12-07T00:21:08;28.58;;;10.63;;
54977;SDS011;40873;47.522;19.106;2022-12-07T00:23:37;22.50;;;10.02;;
54977;SDS011;40873;47.522;19.106;2022-12-07T00:26:16;22.77;;;11.27;;
54977;SDS011;40873;47.522;19.106;2022-12-07T00:28:48;20.23;;;10.27;;
54977;SDS011;40873;47.522;19.106;2022-12-07T00:31:17;25.58;;;11.75;;
54977;SDS011;40873;47.522;19.106;2022-12-07T00:33:46;19.65;;;11.05;;
54977;SDS011;40873;47.522;19.106;2022-12-07T00:36:15;23.55;;;11.20;;
54977;SDS011;40873;47.522;19.106;2022-12-07T00:38:52;22.33;;;10.98;;
54977;SDS011;40873;47.522;19.106;2022-12-07T00:41:22;18.25;;;9.30;;
54977;SDS011;40873;47.522;19.106;2022-12-07T00:43:51;17.60;;;10.88;;
54977;SDS011;40873;47.522;19.106;2022-12-07T00:46:19;16.35;;;9.10;;
54977;SDS011;40873;47.522;19.106;2022-12-07T00:48:47;23.38;;;10.27;;
54977;SDS011;40873;47.522;19.106;2022-12-07T00:51:16;16.95;;;9.70;;
54977;SDS011;40873;47.522;19.106;2022-12-07T00:53:44;19.35;;;9.82;;
54977;SDS011;40873;47.522;19.106;2022-12-07T00:56:12;20.50;;;10.05;;
54977;SDS011;40873;47.522;19.106;2022-12-07T00:58:54;20.27;;;10.18;;
54977;SDS011;40873;47.522;19.106;2022-12-07T01:01:26;22.92;;;10.15;;
54977;SDS011;40873;47.522;19.106;2022-12-07T01:03:55;21.77;;;9.88;;
54977;SDS011;40873;47.522;19.106;2022-12-07T01:06:22;20.08;;;10.73;;
54977;SDS011;40873;47.522;19.106;2022-12-07T01:08:50;21.08;;;9.45;;
54977;SDS011;40873;47.522;19.106;2022-12-07T01:11:18;18.02;;;9.30;;
54977;SDS011;40873;47.522;19.106;2022-12-07T01:13:49;16.55;;;9.15;;
54977;SDS011;40873;47.522;19.106;2022-12-07T01:16:17;22.42;;;10.45;;
54977;SDS011;40873;47.522;19.106;2022-12-07T01:18:48;18.88;;;10.35;;
54977;SDS011;40873;47.522;19.106;2022-12-07T01:21:17;21.48;;;10.48;;
54977;SDS011;40873;47.522;19.106;2022-12-07T01:23:49;24.35;;;10.20;;
54977;SDS011;40873;47.522;19.106;2022-12-07T01:26:18;18.00;;;10.13;;
54977;SDS011;40873;47.522;19.106;2022-12-07T01:28:50;20.27;;;9.80;;
54977;SDS011;40873;47.522;19.106;2022-12-07T01:31:18;18.65;;;9.10;;
54977;SDS011;40873;47.522;19.106;2022-12-07T01:33:47;21.63;;;12.00;;
54977;SDS011;40873;47.522;19.106;2022-12-07T01:36:19;23.58;;;11.80;;
54977;SDS011;40873;47.522;19.106;2022-12-07T01:38:48;23.75;;;12.05;;
54977;SDS011;40873;47.522;19.106;2022-12-07T01:41:20;21.63;;;11.45;;
54977;SDS011;40873;47.522;19.106;2022-12-07T01:46:43;26.00;;;12.07;;
54977;SDS011;40873;47.522;19.106;2022-12-07T01:49:18;26.00;;;11.80;;
54977;SDS011;40873;47.522;19.106;2022-12-07T01:51:58;23.00;;;11.52;;
54977;SDS011;40873;47.522;19.106;2022-12-07T01:54:33;24.33;;;11.45;;
54977;SDS011;40873;47.522;19.106;2022-12-07T01:57:01;26.15;;;13.20;;
54977;SDS011;40873;47.522;19.106;2022-12-07T01:59:29;26.38;;;13.07;;
54977;SDS011;40873;47.522;19.106;2022-12-07T02:01:56;29.17;;;12.88;;
54977;SDS011;40873;47.522;19.106;2022-12-07T02:04:23;21.67;;;11.77;;
54977;SDS011;40873;47.522;19.106;2022-12-07T02:06:51;28.92;;;12.80;;
54977;SDS011;40873;47.522;19.106;2022-12-07T02:09:20;23.13;;;12.55;;
54977;SDS011;40873;47.522;19.106;2022-12-07T02:11:47;24.55;;;12.77;;
54977;SDS011;40873;47.522;19.106;2022-12-07T02:14:14;22.73;;;12.57;;
54977;SDS011;40873;47.522;19.106;2022-12-07T02:30:44;27.02;;;13.48;;
54977;SDS011;40873;47.522;19.106;2022-12-07T02:33:19;26.30;;;13.52;;
54977;SDS011;40873;47.522;19.106;2022-12-07T02:35:58;24.33;;;12.98;;
54977;SDS011;40873;47.522;19.106;2022-12-07T02:38:37;26.15;;;13.00;;
54977;SDS011;40873;47.522;19.106;2022-12-07T02:41:17;24.40;;;12.45;;
54977;SDS011;40873;47.522;19.106;2022-12-07T02:43:52;26.77;;;13.27;;
54977;SDS011;40873;47.522;19.106;2022-12-07T02:46:23;22.02;;;12.50;;
54977;SDS011;40873;47.522;19.106;2022-12-07T02:48:53;25.33;;;13.57;;
54977;SDS011;40873;47.522;19.106;2022-12-07T02:51:22;29.50;;;14.05;;
54977;SDS011;40873;47.522;19.106;2022-12-07T02:53:48;29.92;;;14.45;;
54977;SDS011;40873;47.522;19.106;2022-12-07T03:13:14;25.90;;;12.57;;
54977;SDS011;40873;47.522;19.106;2022-12-07T03:16:02;25.40;;;12.20;;
54977;SDS011;40873;47.522;19.106;2022-12-07T03:18:38;27.45;;;12.20;;
54977;SDS011;40873;47.522;19.106;2022-12-07T03:21:27;22.33;;;11.05;;
54977;SDS011;40873;47.522;19.106;2022-12-07T03:23:58;26.08;;;12.52;;
54977;SDS011;40873;47.522;19.106;2022-12-07T03:26:34;26.70;;;13.23;;
54977;SDS011;40873;47.522;19.106;2022-12-07T03:29:05;23.15;;;13.43;;
54977;SDS011;40873;47.522;19.106;2022-12-07T03:32:32;23.60;;;12.85;;
54977;SDS011;40873;47.522;19.106;2022-12-07T03:37:18;24.20;;;12.35;;
54977;SDS011;40873;47.522;19.106;2022-12-07T03:43:06;20.55;;;11.05;;
54977;SDS011;40873;47.522;19.106;2022-12-07T03:45:41;24.13;;;12.45;;
54977;SDS011;40873;47.522;19.106;2022-12-07T03:48:20;21.83;;;10.80;;
54977;SDS011;40873;47.522;19.106;2022-12-07T03:53:37;24.38;;;12.07;;
54977;SDS011;40873;47.522;19.106;2022-12-07T03:56:10;20.98;;;13.23;;
54977;SDS011;40873;47.522;19.106;2022-12-07T03:58:38;24.88;;;11.90;;
54977;SDS011;40873;47.522;19.106;2022-12-07T04:01:06;27.20;;;12.95;;
54977;SDS011;40873;47.522;19.106;2022-12-07T04:03:33;19.40;;;12.52;;
54977;SDS011;40873;47.522;19.106;2022-12-07T04:06:00;22.05;;;11.25;;
54977;SDS011;40873;47.522;19.106;2022-12-07T04:08:27;24.27;;;12.98;;
54977;SDS011;40873;47.522;19.106;2022-12-07T04:10:54;28.13;;;13.52;;
54977;SDS011;40873;47.522;19.106;2022-12-07T04:13:21;18.50;;;11.82;;
54977;SDS011;40873;47.522;19.106;2022-12-07T04:15:48;21.65;;;12.90;;
54977;SDS011;40873;47.522;19.106;2022-12-07T04:18:15;20.75;;;10.90;;
54977;SDS011;40873;47.522;19.106;2022-12-07T04:20:42;22.77;;;11.50;;
54977;SDS011;40873;47.522;19.106;2022-12-07T04:23:09;23.25;;;11.57;;
54977;SDS011;40873;47.522;19.106;2022-12-07T04:25:36;23.00;;;12.75;;
54977;SDS011;40873;47.522;19.106;2022-12-07T04:28:03;23.08;;;12.05;;
54977;SDS011;40873;47.522;19.106;2022-12-07T04:30:30;23.90;;;12.63;;
54977;SDS011;40873;47.522;19.106;2022-12-07T04:32:57;22.88;;;11.27;;
54977;SDS011;40873;47.522;19.106;2022-12-07T04:35:24;24.33;;;12.95;;
54977;SDS011;40873;47.522;19.106;2022-12-07T04:37:51;24.08;;;12.85;;
54977;SDS011;40873;47.522;19.106;2022-12-07T04:40:18;24.00;;;12.38;;
54977;SDS011;40873;47.522;19.106;2022-12-07T04:42:44;21.77;;;12.50;;
54977;SDS011;40873;47.522;19.106;2022-12-07T04:45:11;22.98;;;12.45;;
54977;SDS011;40873;47.522;19.106;2022-12-07T04:47:38;24.83;;;13.73;;
54977;SDS011;40873;47.522;19.106;2022-12-07T04:50:05;28.98;;;14.00;;
54977;SDS011;40873;47.522;19.106;2022-12-07T04:52:32;21.30;;;11.98;;
54977;SDS011;40873;47.522;19.106;2022-12-07T04:54:59;21.13;;;12.10;;
54977;SDS011;40873;47.522;19.106;2022-12-07T04:57:26;24.38;;;13.40;;
54977;SDS011;40873;47.522;19.106;2022-12-07T04:59:53;27.38;;;13.18;;
54977;SDS011;40873;47.522;19.106;2022-12-07T05:02:20;24.50;;;12.35;;
54977;SDS011;40873;47.522;19.106;2022-12-07T05:04:47;15.20;;;9.60;;
54977;SDS011;40873;47.522;19.106;2022-12-07T05:07:14;20.02;;;9.82;;
54977;SDS011;40873;47.522;19.106;2022-12-07T05:09:41;14.25;;;7.60;;
54977;SDS011;40873;47.522;19.106;2022-12-07T05:12:08;14.90;;;5.90;;
54977;SDS011;40873;47.522;19.106;2022-12-07T05:14:35;10.77;;;6.10;;
54977;SDS011;40873;47.522;19.106;2022-12-07T05:17:01;9.77;;;4.78;;
54977;SDS011;40873;47.522;19.106;2022-12-07T05:19:29;10.32;;;5.07;;
54977;SDS011;40873;47.522;19.106;2022-12-07T05:21:55;8.98;;;4.40;;
54977;SDS011;40873;47.522;19.106;2022-12-07T05:24:22;9.35;;;5.65;;
54977;SDS011;40873;47.522;19.106;2022-12-07T05:26:49;9.02;;;4.40;;
54977;SDS011;40873;47.522;19.106;2022-12-07T05:29:17;9.40;;;5.50;;
54977;SDS011;40873;47.522;19.106;2022-12-07T05:31:44;12.88;;;6.20;;
54977;SDS011;40873;47.522;19.106;2022-12-07T05:34:11;13.50;;;6.88;;
54977;SDS011;40873;47.522;19.106;2022-12-07T05:36:38;14.45;;;7.53;;
54977;SDS011;40873;47.522;19.106;2022-12-07T05:39:06;13.68;;;7.45;;
54977;SDS011;40873;47.522;19.106;2022-12-07T05:41:33;16.13;;;7.70;;
54977;SDS011;40873;47.522;19.106;2022-12-07T05:44:19;18.85;;;10.52;;
54977;SDS011;40873;47.522;19.106;2022-12-07T05:46:46;22.17;;;10.75;;
54977;SDS011;40873;47.522;19.106;2022-12-07T05:49:13;27.98;;;15.68;;
54977;SDS011;40873;47.522;19.106;2022-12-07T05:51:40;26.23;;;12.18;;
54977;SDS011;40873;47.522;19.106;2022-12-07T05:54:07;24.38;;;13.93;;
54977;SDS011;40873;47.522;19.106;2022-12-07T05:56:34;25.42;;;12.50;;
54977;SDS011;40873;47.522;19.106;2022-12-07T05:59:01;26.25;;;15.13;;
54977;SDS011;40873;47.522;19.106;2022-12-07T06:01:46;19.65;;;10.40;;
54977;SDS011;40873;47.522;19.106;2022-12-07T06:04:14;18.15;;;8.95;;
54977;SDS011;40873;47.522;19.106;2022-12-07T06:06:40;15.45;;;7.15;;
54977;SDS011;40873;47.522;19.106;2022-12-07T06:09:07;22.02;;;10.43;;
54977;SDS011;40873;47.522;19.106;2022-12-07T06:11:35;13.02;;;7.43;;
54977;SDS011;40873;47.522;19.106;2022-12-07T06:14:32;11.02;;;6.13;;
54977;SDS011;40873;47.522;19.106;2022-12-07T06:16:59;11.27;;;6.18;;
54977;SDS011;40873;47.522;19.106;2022-12-07T06:19:26;10.55;;;5.78;;
54977;SDS011;40873;47.522;19.106;2022-12-07T06:21:54;12.75;;;6.35;;
54977;SDS011;40873;47.522;19.106;2022-12-07T06:24:21;17.02;;;10.30;;
54977;SDS011;40873;47.522;19.106;2022-12-07T06:26:48;21.05;;;12.25;;
54977;SDS011;40873;47.522;19.106;2022-12-07T06:29:16;30.33;;;14.35;;
54977;SDS011;40873;47.522;19.106;2022-12-07T06:31:43;21.42;;;11.55;;
54977;SDS011;40873;47.522;19.106;2022-12-07T06:34:15;26.88;;;13.65;;
54977;SDS011;40873;47.522;19.106;2022-12-07T06:36:44;24.73;;;14.03;;
54977;SDS011;40873;47.522;19.106;2022-12-07T06:39:12;22.67;;;12.98;;
54977;SDS011;40873;47.522;19.106;2022-12-07T06:41:39;31.55;;;14.57;;
54977;SDS011;40873;47.522;19.106;2022-12-07T06:44:06;24.92;;;13.70;;
54977;SDS011;40873;47.522;19.106;2022-12-07T06:46:33;27.55;;;14.77;;
54977;SDS011;40873;47.522;19.106;2022-12-07T06:49:02;25.52;;;14.88;;
54977;SDS011;40873;47.522;19.106;2022-12-07T06:51:30;25.95;;;13.65;;
54977;SDS011;40873;47.522;19.106;2022-12-07T06:53:58;26.85;;;13.75;;
54977;SDS011;40873;47.522;19.106;2022-12-07T06:56:24;23.73;;;13.55;;
54977;SDS011;40873;47.522;19.106;2022-12-07T06:58:51;24.63;;;14.45;;
54977;SDS011;40873;47.522;19.106;2022-12-07T07:01:18;25.40;;;14.35;;
54977;SDS011;40873;47.522;19.106;2022-12-07T07:03:46;32.13;;;16.52;;
54977;SDS011;40873;47.522;19.106;2022-12-07T07:06:13;29.70;;;14.50;;
54977;SDS011;40873;47.522;19.106;2022-12-07T07:08:40;30.98;;;15.45;;
54977;SDS011;40873;47.522;19.106;2022-12-07T07:11:07;28.67;;;14.45;;
54977;SDS011;40873;47.522;19.106;2022-12-07T07:13:35;30.02;;;15.65;;
54977;SDS011;40873;47.522;19.106;2022-12-07T07:16:02;34.13;;;15.57;;
54977;SDS011;40873;47.522;19.106;2022-12-07T07:18:30;30.33;;;15.18;;
54977;SDS011;40873;47.522;19.106;2022-12-07T07:20:56;30.30;;;15.85;;
54977;SDS011;40873;47.522;19.106;2022-12-07T07:23:24;23.77;;;11.30;;
54977;SDS011;40873;47.522;19.106;2022-12-07T07:25:51;32.67;;;16.05;;
54977;SDS011;40873;47.522;19.106;2022-12-07T07:28:18;35.85;;;16.80;;
54977;SDS011;40873;47.522;19.106;2022-12-07T07:30:45;31.73;;;15.20;;
54977;SDS011;40873;47.522;19.106;2022-12-07T07:33:12;28.95;;;15.07;;
54977;SDS011;40873;47.522;19.106;2022-12-07T07:35:39;31.00;;;15.98;;
54977;SDS011;40873;47.522;19.106;2022-12-07T07:38:07;36.08;;;16.25;;
54977;SDS011;40873;47.522;19.106;2022-12-07T07:40:34;31.55;;;15.48;;
54977;SDS011;40873;47.522;19.106;2022-12-07T07:43:02;34.20;;;17.00;;
54977;SDS011;40873;47.522;19.106;2022-12-07T07:45:29;30.20;;;16.48;;
54977;SDS011;40873;47.522;19.106;2022-12-07T07:47:56;34.65;;;16.35;;
54977;SDS011;40873;47.522;19.106;2022-12-07T07:50:23;32.13;;;16.25;;
54977;SDS011;40873;47.522;19.106;2022-12-07T07:52:50;39.80;;;18.55;;
54977;SDS011;40873;47.522;19.106;2022-12-07T07:55:17;37.63;;;17.77;;
54977;SDS011;40873;47.522;19.106;2022-12-07T07:57:44;34.65;;;17.70;;
54977;SDS011;40873;47.522;19.106;2022-12-07T08:00:19;27.70;;;15.98;;
54977;SDS011;40873;47.522;19.106;2022-12-07T08:02:47;34.80;;;18.05;;
54977;SDS011;40873;47.522;19.106;2022-12-07T08:05:15;34.53;;;17.33;;
54977;SDS011;40873;47.522;19.106;2022-12-07T08:07:42;33.88;;;15.80;;
54977;SDS011;40873;47.522;19.106;2022-12-07T08:10:10;31.42;;;16.10;;
54977;SDS011;40873;47.522;19.106;2022-12-07T08:12:39;28.70;;;15.05;;
54977;SDS011;40873;47.522;19.106;2022-12-07T08:15:28;28.85;;;14.98;;
54977;SDS011;40873;47.522;19.106;2022-12-07T08:17:56;32.13;;;17.42;;
54977;SDS011;40873;47.522;19.106;2022-12-07T08:20:23;32.92;;;17.20;;
54977;SDS011;40873;47.522;19.106;2022-12-07T08:22:50;27.83;;;14.32;;
54977;SDS011;40873;47.522;19.106;2022-12-07T08:25:17;31.00;;;16.25;;
54977;SDS011;40873;47.522;19.106;2022-12-07T08:27:44;31.00;;;15.90;;
54977;SDS011;40873;47.522;19.106;2022-12-07T08:30:11;35.88;;;17.55;;
54977;SDS011;40873;47.522;19.106;2022-12-07T08:32:38;34.88;;;17.45;;
54977;SDS011;40873;47.522;19.106;2022-12-07T08:35:05;30.45;;;16.05;;
54977;SDS011;40873;47.522;19.106;2022-12-07T08:37:33;32.15;;;16.42;;
54977;SDS011;40873;47.522;19.106;2022-12-07T08:39:59;31.92;;;16.92;;
54977;SDS011;40873;47.522;19.106;2022-12-07T08:42:27;30.73;;;15.60;;
54977;SDS011;40873;47.522;19.106;2022-12-07T08:44:56;29.85;;;15.07;;
54977;SDS011;40873;47.522;19.106;2022-12-07T08:47:24;25.98;;;15.55;;
54977;SDS011;40873;47.522;19.106;2022-12-07T08:49:51;37.45;;;16.80;;
54977;SDS011;40873;47.522;19.106;2022-12-07T08:52:20;29.92;;;15.10;;
54977;SDS011;40873;47.522;19.106;2022-12-07T08:54:47;29.58;;;16.45;;
54977;SDS011;40873;47.522;19.106;2022-12-07T08:57:15;32.10;;;17.63;;
54977;SDS011;40873;47.522;19.106;2022-12-07T08:59:42;29.70;;;16.90;;
54977;SDS011;40873;47.522;19.106;2022-12-07T09:02:09;28.80;;;15.82;;
54977;SDS011;40873;47.522;19.106;2022-12-07T09:04:39;29.23;;;15.57;;
54977;SDS011;40873;47.522;19.106;2022-12-07T09:07:06;31.15;;;15.60;;
54977;SDS011;40873;47.522;19.106;2022-12-07T09:09:33;35.00;;;15.50;;
54977;SDS011;40873;47.522;19.106;2022-12-07T09:12:00;23.67;;;13.68;;
54977;SDS011;40873;47.522;19.106;2022-12-07T09:14:27;28.90;;;14.73;;
54977;SDS011;40873;47.522;19.106;2022-12-07T09:16:54;29.05;;;14.85;;
54977;SDS011;40873;47.522;19.106;2022-12-07T09:19:21;24.33;;;13.23;;
54977;SDS011;40873;47.522;19.106;2022-12-07T09:21:48;25.48;;;13.10;;
54977;SDS011;40873;47.522;19.106;2022-12-07T09:24:15;25.15;;;12.50;;
54977;SDS011;40873;47.522;19.106;2022-12-07T09:26:42;17.80;;;10.23;;
54977;SDS011;40873;47.522;19.106;2022-12-07T09:29:08;18.55;;;10.98;;
54977;SDS011;40873;47.522;19.106;2022-12-07T09:31:36;17.38;;;9.35;;
54977;SDS011;40873;47.522;19.106;2022-12-07T09:34:04;15.13;;;8.07;;
54977;SDS011;40873;47.522;19.106;2022-12-07T09:36:32;17.05;;;8.63;;
54977;SDS011;40873;47.522;19.106;2022-12-07T09:38:59;13.40;;;7.15;;
54977;SDS011;40873;47.522;19.106;2022-12-07T09:41:27;17.30;;;7.50;;
54977;SDS011;40873;47.522;19.106;2022-12-07T09:44:07;12.65;;;6.63;;
54977;SDS011;40873;47.522;19.106;2022-12-07T09:46:38;15.60;;;7.65;;
54977;SDS011;40873;47.522;19.106;2022-12-07T09:49:16;13.25;;;7.72;;
54977;SDS011;40873;47.522;19.106;2022-12-07T09:51:45;12.00;;;6.60;;
54977;SDS011;40873;47.522;19.106;2022-12-07T09:54:13;13.25;;;7.47;;
54977;SDS011;40873;47.522;19.106;2022-12-07T09:56:42;16.35;;;8.18;;
54977;SDS011;40873;47.522;19.106;2022-12-07T09:59:12;13.70;;;7.25;;
54977;SDS011;40873;47.522;19.106;2022-12-07T10:01:45;14.93;;;7.53;;
54977;SDS011;40873;47.522;19.106;2022-12-07T10:04:15;16.45;;;6.90;;
54977;SDS011;40873;47.522;19.106;2022-12-07T10:06:45;11.60;;;7.00;;
54977;SDS011;40873;47.522;19.106;2022-12-07T10:09:13;11.05;;;6.38;;
54977;SDS011;40873;47.522;19.106;2022-12-07T10:14:36;13.45;;;5.93;;
54977;SDS011;40873;47.522;19.106;2022-12-07T10:20:15;10.27;;;5.72;;
54977;SDS011;40873;47.522;19.106;2022-12-07T10:22:56;9.05;;;4.75;;
54977;SDS011;40873;47.522;19.106;2022-12-07T10:25:36;12.40;;;5.05;;
54977;SDS011;40873;47.522;19.106;2022-12-07T10:33:38;8.95;;;5.07;;
54977;SDS011;40873;47.522;19.106;2022-12-07T10:36:18;9.07;;;5.20;;
54977;SDS011;40873;47.522;19.106;2022-12-07T10:39:02;8.48;;;4.40;;
54977;SDS011;40873;47.522;19.106;2022-12-07T10:41:57;8.20;;;4.97;;
54977;SDS011;40873;47.522;19.106;2022-12-07T10:44:27;7.57;;;4.20;;
54977;SDS011;40873;47.522;19.106;2022-12-07T11:03:25;11.02;;;4.57;;
54977;SDS011;40873;47.522;19.106;2022-12-07T11:06:14;8.07;;;4.55;;
54977;SDS011;40873;47.522;19.106;2022-12-07T11:12:03;8.60;;;4.80;;
54977;SDS011;40873;47.522;19.106;2022-12-07T11:14:44;13.55;;;5.68;;
54977;SDS011;40873;47.522;19.106;2022-12-07T11:17:29;7.82;;;5.00;;
54977;SDS011;40873;47.522;19.106;2022-12-07T11:22:57;9.68;;;5.20;;
54977;SDS011;40873;47.522;19.106;2022-12-07T11:30:46;9.00;;;4.65;;
54977;SDS011;40873;47.522;19.106;2022-12-07T11:38:55;9.85;;;5.20;;
54977;SDS011;40873;47.522;19.106;2022-12-07T11:41:31;13.30;;;6.53;;
54977;SDS011;40873;47.522;19.106;2022-12-07T11:44:15;13.52;;;4.70;;
54977;SDS011;40873;47.522;19.106;2022-12-07T11:46:58;10.45;;;5.03;;
54977;SDS011;40873;47.522;19.106;2022-12-07T11:49:57;11.23;;;5.10;;
54977;SDS011;40873;47.522;19.106;2022-12-07T11:52:53;9.30;;;5.38;;
54977;SDS011;40873;47.522;19.106;2022-12-07T11:55:32;8.50;;;4.78;;
54977;SDS011;40873;47.522;19.106;2022-12-07T12:04:29;10.10;;;5.00;;
54977;SDS011;40873;47.522;19.106;2022-12-07T12:07:06;10.93;;;5.75;;
54977;SDS011;40873;47.522;19.106;2022-12-07T12:12:52;10.02;;;4.38;;
54977;SDS011;40873;47.522;19.106;2022-12-07T12:21:28;10.38;;;4.65;;
54977;SDS011;40873;47.522;19.106;2022-12-07T12:24:00;9.27;;;4.43;;
54977;SDS011;40873;47.522;19.106;2022-12-07T12:26:51;8.07;;;4.88;;
54977;SDS011;40873;47.522;19.106;2022-12-07T12:29:31;11.70;;;5.60;;
54977;SDS011;40873;47.522;19.106;2022-12-07T12:32:07;8.25;;;4.97;;
54977;SDS011;40873;47.522;19.106;2022-12-07T12:42:47;11.05;;;5.55;;
54977;SDS011;40873;47.522;19.106;2022-12-07T12:45:24;10.23;;;5.00;;
54977;SDS011;40873;47.522;19.106;2022-12-07T12:47:55;11.90;;;5.90;;
54977;SDS011;40873;47.522;19.106;2022-12-07T12:53:03;13.52;;;5.75;;
54977;SDS011;40873;47.522;19.106;2022-12-07T12:55:54;9.68;;;5.68;;
54977;SDS011;40873;47.522;19.106;2022-12-07T12:58:38;12.07;;;6.15;;
54977;SDS011;40873;47.522;19.106;2022-12-07T13:03:56;12.10;;;5.20;;
54977;SDS011;40873;47.522;19.106;2022-12-07T13:08:51;10.98;;;5.25;;
54977;SDS011;40873;47.522;19.106;2022-12-07T13:11:28;9.52;;;4.97;;
54977;SDS011;40873;47.522;19.106;2022-12-07T13:19:57;7.65;;;4.38;;
54977;SDS011;40873;47.522;19.106;2022-12-07T13:25:40;8.60;;;4.57;;
54977;SDS011;40873;47.522;19.106;2022-12-07T13:28:09;7.90;;;4.00;;
54977;SDS011;40873;47.522;19.106;2022-12-07T13:31:09;10.70;;;4.40;;
54977;SDS011;40873;47.522;19.106;2022-12-07T13:36:26;9.07;;;4.40;;
54977;SDS011;40873;47.522;19.106;2022-12-07T13:38:58;7.87;;;5.17;;
54977;SDS011;40873;47.522;19.106;2022-12-07T13:41:28;8.15;;;4.78;;
54977;SDS011;40873;47.522;19.106;2022-12-07T13:46:32;9.85;;;5.47;;
54977;SDS011;40873;47.522;19.106;2022-12-07T13:49:15;10.15;;;5.40;;
54977;SDS011;40873;47.522;19.106;2022-12-07T13:51:47;11.13;;;5.28;;
54977;SDS011;40873;47.522;19.106;2022-12-07T13:54:15;10.50;;;5.47;;
54977;SDS011;40873;47.522;19.106;2022-12-07T13:56:43;8.73;;;4.80;;
54977;SDS011;40873;47.522;19.106;2022-12-07T13:59:14;8.45;;;4.68;;
54977;SDS011;40873;47.522;19.106;2022-12-07T14:01:45;10.38;;;5.22;;
54977;SDS011;40873;47.522;19.106;2022-12-07T14:04:19;10.48;;;5.43;;
54977;SDS011;40873;47.522;19.106;2022-12-07T14:07:19;9.63;;;5.30;;
54977;SDS011;40873;47.522;19.106;2022-12-07T14:09:53;11.65;;;5.38;;
54977;SDS011;40873;47.522;19.106;2022-12-07T14:12:29;10.05;;;5.68;;
54977;SDS011;40873;47.522;19.106;2022-12-07T14:14:58;12.07;;;5.40;;
54977;SDS011;40873;47.522;19.106;2022-12-07T14:17:27;12.30;;;5.93;;
54977;SDS011;40873;47.522;19.106;2022-12-07T14:19:58;11.00;;;5.55;;
54977;SDS011;40873;47.522;19.106;2022-12-07T14:28:02;11.35;;;6.30;;
54977;SDS011;40873;47.522;19.106;2022-12-07T14:30:30;11.30;;;5.78;;
54977;SDS011;40873;47.522;19.106;2022-12-07T14:33:00;10.88;;;5.43;;
54977;SDS011;40873;47.522;19.106;2022-12-07T14:35:32;13.98;;;6.13;;
54977;SDS011;40873;47.522;19.106;2022-12-07T14:37:59;12.23;;;5.10;;
54977;SDS011;40873;47.522;19.106;2022-12-07T14:40:27;11.80;;;5.95;;
54977;SDS011;40873;47.522;19.106;2022-12-07T14:43:02;11.20;;;6.25;;
54977;SDS011;40873;47.522;19.106;2022-12-07T14:45:37;10.10;;;5.85;;
54977;SDS011;40873;47.522;19.106;2022-12-07T14:48:06;11.98;;;6.18;;
54977;SDS011;40873;47.522;19.106;2022-12-07T14:50:57;12.55;;;6.88;;
54977;SDS011;40873;47.522;19.106;2022-12-07T14:53:45;22.75;;;6.90;;
54977;SDS011;40873;47.522;19.106;2022-12-07T14:56:23;10.55;;;5.60;;
54977;SDS011;40873;47.522;19.106;2022-12-07T14:58:50;12.20;;;5.78;;
54977;SDS011;40873;47.522;19.106;2022-12-07T15:01:18;12.23;;;6.00;;
54977;SDS011;40873;47.522;19.106;2022-12-07T15:03:45;12.80;;;6.07;;
54977;SDS011;40873;47.522;19.106;2022-12-07T15:06:16;14.93;;;5.93;;
54977;SDS011;40873;47.522;19.106;2022-12-07T15:08:44;11.38;;;6.10;;
54977;SDS011;40873;47.522;19.106;2022-12-07T15:11:13;12.20;;;5.90;;
54977;SDS011;40873;47.522;19.106;2022-12-07T15:13:40;10.85;;;5.57;;
54977;SDS011;40873;47.522;19.106;2022-12-07T15:16:26;11.38;;;5.43;;
54977;SDS011;40873;47.522;19.106;2022-12-07T15:19:09;15.48;;;5.80;;
54977;SDS011;40873;47.522;19.106;2022-12-07T15:21:56;11.68;;;6.10;;
54977;SDS011;40873;47.522;19.106;2022-12-07T15:24:23;14.20;;;6.43;;
54977;SDS011;40873;47.522;19.106;2022-12-07T15:26:51;10.63;;;5.68;;
54977;SDS011;40873;47.522;19.106;2022-12-07T15:29:18;14.20;;;4.95;;
54977;SDS011;40873;47.522;19.106;2022-12-07T15:31:50;9.63;;;5.70;;
54977;SDS011;40873;47.522;19.106;2022-12-07T15:34:24;11.30;;;6.10;;
54977;SDS011;40873;47.522;19.106;2022-12-07T15:37:01;11.23;;;6.28;;
54977;SDS011;40873;47.522;19.106;2022-12-07T15:39:28;12.65;;;6.55;;
54977;SDS011;40873;47.522;19.106;2022-12-07T15:41:55;13.43;;;6.15;;
54977;SDS011;40873;47.522;19.106;2022-12-07T15:44:22;9.27;;;5.45;;
54977;SDS011;40873;47.522;19.106;2022-12-07T15:47:08;15.32;;;6.40;;
54977;SDS011;40873;47.522;19.106;2022-12-07T15:49:35;12.68;;;5.88;;
54977;SDS011;40873;47.522;19.106;2022-12-07T15:52:02;16.52;;;6.20;;
54977;SDS011;40873;47.522;19.106;2022-12-07T15:54:29;14.32;;;6.28;;
54977;SDS011;40873;47.522;19.106;2022-12-07T15:56:56;13.23;;;6.88;;
54977;SDS011;40873;47.522;19.106;2022-12-07T15:59:25;14.38;;;7.05;;
54977;SDS011;40873;47.522;19.106;2022-12-07T16:01:54;12.05;;;5.95;;
54977;SDS011;40873;47.522;19.106;2022-12-07T16:04:21;10.50;;;6.40;;
54977;SDS011;40873;47.522;19.106;2022-12-07T16:06:48;17.63;;;6.75;;
54977;SDS011;40873;47.522;19.106;2022-12-07T16:09:17;12.50;;;7.03;;
54977;SDS011;40873;47.522;19.106;2022-12-07T16:11:45;11.90;;;5.00;;
54977;SDS011;40873;47.522;19.106;2022-12-07T16:14:12;10.20;;;4.72;;
54977;SDS011;40873;47.522;19.106;2022-12-07T16:16:39;12.20;;;6.80;;
54977;SDS011;40873;47.522;19.106;2022-12-07T16:19:07;13.45;;;6.07;;
54977;SDS011;40873;47.522;19.106;2022-12-07T16:21:35;14.32;;;5.65;;
54977;SDS011;40873;47.522;19.106;2022-12-07T16:24:02;13.13;;;5.63;;
54977;SDS011;40873;47.522;19.106;2022-12-07T16:26:29;12.75;;;5.32;;
54977;SDS011;40873;47.522;19.106;2022-12-07T16:28:57;11.88;;;6.18;;
54977;SDS011;40873;47.522;19.106;2022-12-07T16:31:25;12.57;;;6.05;;
54977;SDS011;40873;47.522;19.106;2022-12-07T16:33:54;15.75;;;6.30;;
54977;SDS011;40873;47.522;19.106;2022-12-07T16:36:23;12.63;;;5.35;;
54977;SDS011;40873;47.522;19.106;2022-12-07T16:39:11;15.07;;;6.63;;
54977;SDS011;40873;47.522;19.106;2022-12-07T16:41:38;13.20;;;6.00;;
54977;SDS011;40873;47.522;19.106;2022-12-07T16:44:06;14.38;;;6.28;;
54977;SDS011;40873;47.522;19.106;2022-12-07T16:46:35;14.15;;;5.60;;
54977;SDS011;40873;47.522;19.106;2022-12-07T16:49:03;13.40;;;5.95;;
54977;SDS011;40873;47.522;19.106;2022-12-07T16:51:31;12.68;;;6.15;;
54977;SDS011;40873;47.522;19.106;2022-12-07T16:53:58;14.32;;;6.25;;
54977;SDS011;40873;47.522;19.106;2022-12-07T16:56:25;10.63;;;6.13;;